sensor_id;sensor_type;location;lat;lon;timestamp;temperature;humidity
45537;DHT22;31262;51.978;5.924;2022-09-12T00:01:05;18.70;72.70
45537;DHT22;31262;51.978;5.924;2022-09-12T00:03:31;18.70;72.50
45537;DHT22;31262;51.978;5.924;2022-09-12T00:05:57;18.70;72.70
45537;DHT22;31262;51.978;5.924;2022-09-12T00:08:22;18.60;72.70
45537;DHT22;31262;51.978;5.924;2022-09-12T00:10:48;18.60;72.80
45537;DHT22;31262;51.978;5.924;2022-09-12T00:13:13;18.60;72.70
45537;DHT22;31262;51.978;5.924;2022-09-12T00:15:43;18.60;72.70
45537;DHT22;31262;51.978;5.924;2022-09-12T00:18:12;18.60;72.60
45537;DHT22;31262;51.978;5.924;2022-09-12T00:20:43;18.60;72.70
45537;DHT22;31262;51.978;5.924;2022-09-12T00:23:08;18.70;72.90
45537;DHT22;31262;51.978;5.924;2022-09-12T00:25:39;18.70;72.90
45537;DHT22;31262;51.978;5.924;2022-09-12T00:28:05;18.80;72.70
45537;DHT22;31262;51.978;5.924;2022-09-12T00:30:30;19.00;72.50
45537;DHT22;31262;51.978;5.924;2022-09-12T00:32:56;19.00;72.20
45537;DHT22;31262;51.978;5.924;2022-09-12T00:35:21;19.10;72.00
45537;DHT22;31262;51.978;5.924;2022-09-12T00:37:47;19.20;71.80
45537;DHT22;31262;51.978;5.924;2022-09-12T00:40:13;19.30;71.80
45537;DHT22;31262;51.978;5.924;2022-09-12T00:42:39;19.30;71.40
45537;DHT22;31262;51.978;5.924;2022-09-12T00:45:05;19.30;71.30
45537;DHT22;31262;51.978;5.924;2022-09-12T00:47:31;19.40;71.30
45537;DHT22;31262;51.978;5.924;2022-09-12T00:50:03;19.40;71.20
45537;DHT22;31262;51.978;5.924;2022-09-12T00:52:40;19.50;71.10
45537;DHT22;31262;51.978;5.924;2022-09-12T00:55:10;19.50;71.00
45537;DHT22;31262;51.978;5.924;2022-09-12T00:58:23;19.50;70.80
45537;DHT22;31262;51.978;5.924;2022-09-12T01:00:29;19.50;70.80
45537;DHT22;31262;51.978;5.924;2022-09-12T01:03:01;19.50;70.90
45537;DHT22;31262;51.978;5.924;2022-09-12T01:05:30;19.60;70.70
45537;DHT22;31262;51.978;5.924;2022-09-12T01:07:56;19.50;70.50
45537;DHT22;31262;51.978;5.924;2022-09-12T01:10:23;19.40;70.40
45537;DHT22;31262;51.978;5.924;2022-09-12T01:12:49;19.60;70.60
45537;DHT22;31262;51.978;5.924;2022-09-12T01:15:15;19.40;70.50
45537;DHT22;31262;51.978;5.924;2022-09-12T01:32:04;19.40;70.00
45537;DHT22;31262;51.978;5.924;2022-09-12T01:34:49;19.50;70.20
45537;DHT22;31262;51.978;5.924;2022-09-12T01:37:43;19.40;70.00
45537;DHT22;31262;51.978;5.924;2022-09-12T01:40:17;19.40;70.00
45537;DHT22;31262;51.978;5.924;2022-09-12T01:46:15;19.40;69.80
45537;DHT22;31262;51.978;5.924;2022-09-12T01:49:06;19.40;69.80
45537;DHT22;31262;51.978;5.924;2022-09-12T01:54:18;19.50;69.80
45537;DHT22;31262;51.978;5.924;2022-09-12T01:56:47;19.50;69.90
45537;DHT22;31262;51.978;5.924;2022-09-12T01:59:44;19.50;69.70
45537;DHT22;31262;51.978;5.924;2022-09-12T02:02:15;19.50;69.40
45537;DHT22;31262;51.978;5.924;2022-09-12T02:04:52;19.50;69.70
45537;DHT22;31262;51.978;5.924;2022-09-12T02:07:23;19.50;69.50
45537;DHT22;31262;51.978;5.924;2022-09-12T02:12:51;19.40;69.40
45537;DHT22;31262;51.978;5.924;2022-09-12T02:15:23;19.40;69.60
45537;DHT22;31262;51.978;5.924;2022-09-12T02:17:52;19.40;69.70
45537;DHT22;31262;51.978;5.924;2022-09-12T02:20:30;19.30;69.60
45537;DHT22;31262;51.978;5.924;2022-09-12T02:22:59;19.40;69.50
45537;DHT22;31262;51.978;5.924;2022-09-12T02:25:26;19.30;69.60
45537;DHT22;31262;51.978;5.924;2022-09-12T02:28:03;19.30;69.50
45537;DHT22;31262;51.978;5.924;2022-09-12T02:30:38;19.30;69.50
45537;DHT22;31262;51.978;5.924;2022-09-12T02:35:53;19.20;69.60
45537;DHT22;31262;51.978;5.924;2022-09-12T02:38:43;19.30;69.40
45537;DHT22;31262;51.978;5.924;2022-09-12T02:41:11;19.30;69.40
45537;DHT22;31262;51.978;5.924;2022-09-12T02:43:37;19.20;69.70
45537;DHT22;31262;51.978;5.924;2022-09-12T02:46:08;19.20;69.60
45537;DHT22;31262;51.978;5.924;2022-09-12T02:48:38;19.20;69.40
45537;DHT22;31262;51.978;5.924;2022-09-12T02:51:06;19.20;69.50
45537;DHT22;31262;51.978;5.924;2022-09-12T02:53:32;19.10;69.50
45537;DHT22;31262;51.978;5.924;2022-09-12T02:55:58;19.10;69.50
45537;DHT22;31262;51.978;5.924;2022-09-12T02:58:27;19.10;69.40
45537;DHT22;31262;51.978;5.924;2022-09-12T03:01:11;19.10;69.20
45537;DHT22;31262;51.978;5.924;2022-09-12T03:09:48;19.10;69.30
45537;DHT22;31262;51.978;5.924;2022-09-12T03:12:33;19.10;69.40
45537;DHT22;31262;51.978;5.924;2022-09-12T03:15:03;19.10;69.30
45537;DHT22;31262;51.978;5.924;2022-09-12T03:18:00;19.10;69.50
45537;DHT22;31262;51.978;5.924;2022-09-12T03:23:02;19.00;69.40
45537;DHT22;31262;51.978;5.924;2022-09-12T03:25:39;19.10;69.60
45537;DHT22;31262;51.978;5.924;2022-09-12T03:28:08;19.10;69.30
45537;DHT22;31262;51.978;5.924;2022-09-12T03:30:42;19.00;69.40
45537;DHT22;31262;51.978;5.924;2022-09-12T03:33:12;18.80;69.70
45537;DHT22;31262;51.978;5.924;2022-09-12T03:35:40;18.90;69.80
45537;DHT22;31262;51.978;5.924;2022-09-12T03:38:05;18.90;69.60
45537;DHT22;31262;51.978;5.924;2022-09-12T03:40:33;19.00;69.60
45537;DHT22;31262;51.978;5.924;2022-09-12T03:42:58;19.00;69.40
45537;DHT22;31262;51.978;5.924;2022-09-12T03:45:24;19.00;69.40
45537;DHT22;31262;51.978;5.924;2022-09-12T03:47:50;19.00;69.40
45537;DHT22;31262;51.978;5.924;2022-09-12T03:50:15;19.10;69.40
45537;DHT22;31262;51.978;5.924;2022-09-12T03:52:41;19.10;69.30
45537;DHT22;31262;51.978;5.924;2022-09-12T03:55:07;19.00;69.20
45537;DHT22;31262;51.978;5.924;2022-09-12T03:57:33;19.00;69.20
45537;DHT22;31262;51.978;5.924;2022-09-12T03:59:58;19.10;69.20
45537;DHT22;31262;51.978;5.924;2022-09-12T04:02:24;19.10;69.20
45537;DHT22;31262;51.978;5.924;2022-09-12T04:04:50;19.10;69.20
45537;DHT22;31262;51.978;5.924;2022-09-12T04:07:16;19.00;69.10
45537;DHT22;31262;51.978;5.924;2022-09-12T04:09:41;19.00;69.10
45537;DHT22;31262;51.978;5.924;2022-09-12T04:12:07;19.00;69.20
45537;DHT22;31262;51.978;5.924;2022-09-12T04:14:33;19.10;69.30
45537;DHT22;31262;51.978;5.924;2022-09-12T04:16:59;19.00;69.30
45537;DHT22;31262;51.978;5.924;2022-09-12T04:19:26;19.00;69.40
45537;DHT22;31262;51.978;5.924;2022-09-12T04:21:51;18.90;69.20
45537;DHT22;31262;51.978;5.924;2022-09-12T04:24:17;19.00;69.30
45537;DHT22;31262;51.978;5.924;2022-09-12T04:26:43;19.00;69.20
45537;DHT22;31262;51.978;5.924;2022-09-12T04:29:11;19.00;69.30
45537;DHT22;31262;51.978;5.924;2022-09-12T04:31:37;19.00;69.20
45537;DHT22;31262;51.978;5.924;2022-09-12T04:34:05;18.90;69.30
45537;DHT22;31262;51.978;5.924;2022-09-12T04:36:31;18.90;69.20
45537;DHT22;31262;51.978;5.924;2022-09-12T04:39:00;18.90;69.20
45537;DHT22;31262;51.978;5.924;2022-09-12T04:41:34;19.00;69.20
45537;DHT22;31262;51.978;5.924;2022-09-12T04:44:04;19.00;69.10
45537;DHT22;31262;51.978;5.924;2022-09-12T04:46:33;19.00;69.20
45537;DHT22;31262;51.978;5.924;2022-09-12T04:48:59;19.00;69.30
45537;DHT22;31262;51.978;5.924;2022-09-12T04:51:30;18.90;69.20
45537;DHT22;31262;51.978;5.924;2022-09-12T04:54:01;19.00;69.20
45537;DHT22;31262;51.978;5.924;2022-09-12T04:56:28;18.90;69.20
45537;DHT22;31262;51.978;5.924;2022-09-12T04:58:56;18.80;69.40
45537;DHT22;31262;51.978;5.924;2022-09-12T05:01:22;18.70;69.60
45537;DHT22;31262;51.978;5.924;2022-09-12T05:03:49;18.60;69.90
45537;DHT22;31262;51.978;5.924;2022-09-12T05:06:18;18.50;70.20
45537;DHT22;31262;51.978;5.924;2022-09-12T05:08:44;18.40;70.30
45537;DHT22;31262;51.978;5.924;2022-09-12T05:11:22;18.30;70.60
45537;DHT22;31262;51.978;5.924;2022-09-12T05:13:48;18.30;70.70
45537;DHT22;31262;51.978;5.924;2022-09-12T05:16:15;18.20;70.90
45537;DHT22;31262;51.978;5.924;2022-09-12T05:18:42;18.20;71.10
45537;DHT22;31262;51.978;5.924;2022-09-12T05:21:11;18.10;71.40
45537;DHT22;31262;51.978;5.924;2022-09-12T05:23:36;18.20;71.60
45537;DHT22;31262;51.978;5.924;2022-09-12T05:26:04;18.10;71.70
45537;DHT22;31262;51.978;5.924;2022-09-12T05:28:36;18.00;71.70
45537;DHT22;31262;51.978;5.924;2022-09-12T05:31:11;18.10;71.70
45537;DHT22;31262;51.978;5.924;2022-09-12T05:33:38;18.10;71.50
45537;DHT22;31262;51.978;5.924;2022-09-12T05:36:05;18.00;71.80
45537;DHT22;31262;51.978;5.924;2022-09-12T05:38:36;18.00;72.00
45537;DHT22;31262;51.978;5.924;2022-09-12T05:41:23;18.00;72.10
45537;DHT22;31262;51.978;5.924;2022-09-12T05:43:51;17.80;71.90
45537;DHT22;31262;51.978;5.924;2022-09-12T05:46:20;17.90;72.40
45537;DHT22;31262;51.978;5.924;2022-09-12T05:48:47;18.00;72.30
45537;DHT22;31262;51.978;5.924;2022-09-12T05:51:19;18.00;72.40
45537;DHT22;31262;51.978;5.924;2022-09-12T05:53:47;18.10;72.40
45537;DHT22;31262;51.978;5.924;2022-09-12T05:56:16;18.10;72.50
45537;DHT22;31262;51.978;5.924;2022-09-12T05:58:44;18.10;72.50
45537;DHT22;31262;51.978;5.924;2022-09-12T06:01:13;18.20;72.70
45537;DHT22;31262;51.978;5.924;2022-09-12T06:03:41;18.20;72.70
45537;DHT22;31262;51.978;5.924;2022-09-12T06:06:07;18.20;72.80
45537;DHT22;31262;51.978;5.924;2022-09-12T06:08:34;18.30;72.90
45537;DHT22;31262;51.978;5.924;2022-09-12T06:11:05;18.30;72.90
45537;DHT22;31262;51.978;5.924;2022-09-12T06:13:35;18.40;73.00
45537;DHT22;31262;51.978;5.924;2022-09-12T06:16:06;18.30;73.20
45537;DHT22;31262;51.978;5.924;2022-09-12T06:18:36;18.30;73.20
45537;DHT22;31262;51.978;5.924;2022-09-12T06:21:10;18.30;73.40
45537;DHT22;31262;51.978;5.924;2022-09-12T06:23:36;18.40;73.50
45537;DHT22;31262;51.978;5.924;2022-09-12T06:26:03;18.30;73.70
45537;DHT22;31262;51.978;5.924;2022-09-12T06:28:30;18.40;73.80
45537;DHT22;31262;51.978;5.924;2022-09-12T06:31:05;18.40;73.80
45537;DHT22;31262;51.978;5.924;2022-09-12T06:33:33;18.50;73.90
45537;DHT22;31262;51.978;5.924;2022-09-12T06:36:08;18.40;74.10
45537;DHT22;31262;51.978;5.924;2022-09-12T06:38:34;18.50;74.00
45537;DHT22;31262;51.978;5.924;2022-09-12T06:41:03;18.40;74.10
45537;DHT22;31262;51.978;5.924;2022-09-12T06:43:29;18.50;74.10
45537;DHT22;31262;51.978;5.924;2022-09-12T06:45:54;18.50;74.20
45537;DHT22;31262;51.978;5.924;2022-09-12T06:48:20;18.50;74.30
45537;DHT22;31262;51.978;5.924;2022-09-12T06:51:18;18.50;74.30
45537;DHT22;31262;51.978;5.924;2022-09-12T06:53:46;18.50;73.90
45537;DHT22;31262;51.978;5.924;2022-09-12T06:56:14;18.50;74.50
45537;DHT22;31262;51.978;5.924;2022-09-12T06:58:41;18.50;74.40
45537;DHT22;31262;51.978;5.924;2022-09-12T07:03:40;18.60;74.50
45537;DHT22;31262;51.978;5.924;2022-09-12T07:06:11;18.30;74.70
45537;DHT22;31262;51.978;5.924;2022-09-12T07:08:38;18.50;74.90
45537;DHT22;31262;51.978;5.924;2022-09-12T07:11:09;18.50;75.10
45537;DHT22;31262;51.978;5.924;2022-09-12T07:13:36;18.60;75.20
45537;DHT22;31262;51.978;5.924;2022-09-12T07:16:03;18.50;75.20
45537;DHT22;31262;51.978;5.924;2022-09-12T07:18:30;18.60;75.20
45537;DHT22;31262;51.978;5.924;2022-09-12T07:20:57;18.70;75.10
45537;DHT22;31262;51.978;5.924;2022-09-12T07:23:23;18.80;75.00
45537;DHT22;31262;51.978;5.924;2022-09-12T07:25:56;18.80;75.00
45537;DHT22;31262;51.978;5.924;2022-09-12T07:28:26;18.90;74.70
45537;DHT22;31262;51.978;5.924;2022-09-12T07:30:52;18.90;74.70
45537;DHT22;31262;51.978;5.924;2022-09-12T07:33:27;18.90;74.80
45537;DHT22;31262;51.978;5.924;2022-09-12T07:35:53;18.90;74.80
45537;DHT22;31262;51.978;5.924;2022-09-12T07:38:22;18.90;74.90
45537;DHT22;31262;51.978;5.924;2022-09-12T07:40:47;18.90;74.90
45537;DHT22;31262;51.978;5.924;2022-09-12T07:43:13;18.90;74.90
45537;DHT22;31262;51.978;5.924;2022-09-12T07:45:39;18.90;74.90
45537;DHT22;31262;51.978;5.924;2022-09-12T07:48:08;19.00;75.00
45537;DHT22;31262;51.978;5.924;2022-09-12T07:50:34;19.00;75.00
45537;DHT22;31262;51.978;5.924;2022-09-12T07:53:04;18.90;75.20
45537;DHT22;31262;51.978;5.924;2022-09-12T07:55:30;19.00;75.40
45537;DHT22;31262;51.978;5.924;2022-09-12T07:57:56;18.80;75.40
45537;DHT22;31262;51.978;5.924;2022-09-12T08:00:21;18.90;75.70
45537;DHT22;31262;51.978;5.924;2022-09-12T08:02:51;19.00;75.20
45537;DHT22;31262;51.978;5.924;2022-09-12T08:05:17;19.00;75.20
45537;DHT22;31262;51.978;5.924;2022-09-12T08:07:43;19.00;75.20
45537;DHT22;31262;51.978;5.924;2022-09-12T08:10:09;19.00;75.20
45537;DHT22;31262;51.978;5.924;2022-09-12T08:12:34;19.00;75.20
45537;DHT22;31262;51.978;5.924;2022-09-12T08:15:01;19.20;75.40
45537;DHT22;31262;51.978;5.924;2022-09-12T08:17:27;19.20;75.40
45537;DHT22;31262;51.978;5.924;2022-09-12T08:19:54;19.20;75.30
45537;DHT22;31262;51.978;5.924;2022-09-12T08:22:21;19.30;75.30
45537;DHT22;31262;51.978;5.924;2022-09-12T08:24:48;19.40;75.20
45537;DHT22;31262;51.978;5.924;2022-09-12T08:27:13;19.50;74.80
45537;DHT22;31262;51.978;5.924;2022-09-12T08:29:39;19.60;74.60
45537;DHT22;31262;51.978;5.924;2022-09-12T08:32:05;19.70;74.80
45537;DHT22;31262;51.978;5.924;2022-09-12T08:34:31;19.90;74.50
45537;DHT22;31262;51.978;5.924;2022-09-12T08:36:56;20.00;74.40
45537;DHT22;31262;51.978;5.924;2022-09-12T08:39:22;20.20;74.20
45537;DHT22;31262;51.978;5.924;2022-09-12T08:42:08;20.40;73.70
45537;DHT22;31262;51.978;5.924;2022-09-12T08:47:35;20.80;72.80
45537;DHT22;31262;51.978;5.924;2022-09-12T08:53:11;21.20;71.20
45537;DHT22;31262;51.978;5.924;2022-09-12T08:55:57;21.40;70.50
45537;DHT22;31262;51.978;5.924;2022-09-12T08:58:24;21.60;69.80
45537;DHT22;31262;51.978;5.924;2022-09-12T09:01:02;21.80;69.70
45537;DHT22;31262;51.978;5.924;2022-09-12T09:12:09;22.90;67.10
45537;DHT22;31262;51.978;5.924;2022-09-12T09:15:09;23.20;66.30
45537;DHT22;31262;51.978;5.924;2022-09-12T09:23:18;24.10;63.50
45537;DHT22;31262;51.978;5.924;2022-09-12T09:28:35;24.60;62.90
45537;DHT22;31262;51.978;5.924;2022-09-12T09:31:02;24.90;61.60
45537;DHT22;31262;51.978;5.924;2022-09-12T09:33:33;25.10;61.00
45537;DHT22;31262;51.978;5.924;2022-09-12T09:36:21;25.40;60.00
45537;DHT22;31262;51.978;5.924;2022-09-12T09:38:48;25.70;59.20
45537;DHT22;31262;51.978;5.924;2022-09-12T09:43:45;25.90;58.00
45537;DHT22;31262;51.978;5.924;2022-09-12T09:46:11;26.00;57.30
45537;DHT22;31262;51.978;5.924;2022-09-12T09:48:42;26.10;56.60
45537;DHT22;31262;51.978;5.924;2022-09-12T09:51:09;26.20;56.10
45537;DHT22;31262;51.978;5.924;2022-09-12T09:56:20;26.30;56.50
45537;DHT22;31262;51.978;5.924;2022-09-12T09:58:50;26.40;56.30
45537;DHT22;31262;51.978;5.924;2022-09-12T10:01:17;26.50;55.60
45537;DHT22;31262;51.978;5.924;2022-09-12T10:03:49;26.60;54.70
45537;DHT22;31262;51.978;5.924;2022-09-12T10:08:44;26.70;53.80
45537;DHT22;31262;51.978;5.924;2022-09-12T10:11:18;26.80;54.20
45537;DHT22;31262;51.978;5.924;2022-09-12T10:13:54;27.00;53.60
45537;DHT22;31262;51.978;5.924;2022-09-12T10:18:53;26.80;54.30
45537;DHT22;31262;51.978;5.924;2022-09-12T10:21:33;27.00;54.20
45537;DHT22;31262;51.978;5.924;2022-09-12T10:26:34;27.60;52.50
45537;DHT22;31262;51.978;5.924;2022-09-12T10:29:10;27.50;51.90
45537;DHT22;31262;51.978;5.924;2022-09-12T10:31:58;27.50;52.10
45537;DHT22;31262;51.978;5.924;2022-09-12T10:34:41;27.70;51.70
45537;DHT22;31262;51.978;5.924;2022-09-12T10:37:31;27.90;50.80
45537;DHT22;31262;51.978;5.924;2022-09-12T10:39:58;27.90;50.20
45537;DHT22;31262;51.978;5.924;2022-09-12T10:42:53;28.00;49.90
45537;DHT22;31262;51.978;5.924;2022-09-12T10:45:35;28.20;49.20
45537;DHT22;31262;51.978;5.924;2022-09-12T10:48:28;28.30;48.50
45537;DHT22;31262;51.978;5.924;2022-09-12T10:50:54;28.50;48.20
45537;DHT22;31262;51.978;5.924;2022-09-12T10:53:29;28.60;47.30
45537;DHT22;31262;51.978;5.924;2022-09-12T11:04:19;29.20;46.50
45537;DHT22;31262;51.978;5.924;2022-09-12T11:20:16;29.40;44.00
45537;DHT22;31262;51.978;5.924;2022-09-12T11:28:33;29.60;44.20
45537;DHT22;31262;51.978;5.924;2022-09-12T11:31:17;29.70;43.60
45537;DHT22;31262;51.978;5.924;2022-09-12T11:33:49;29.60;43.80
45537;DHT22;31262;51.978;5.924;2022-09-12T11:36:26;29.50;44.00
45537;DHT22;31262;51.978;5.924;2022-09-12T11:41:38;29.70;44.40
45537;DHT22;31262;51.978;5.924;2022-09-12T11:44:58;29.80;43.60
45537;DHT22;31262;51.978;5.924;2022-09-12T11:47:12;30.10;43.60
45537;DHT22;31262;51.978;5.924;2022-09-12T11:49:42;30.10;43.10
45537;DHT22;31262;51.978;5.924;2022-09-12T11:52:16;30.20;41.60
45537;DHT22;31262;51.978;5.924;2022-09-12T11:55:09;30.00;42.00
45537;DHT22;31262;51.978;5.924;2022-09-12T11:57:44;29.90;42.40
45537;DHT22;31262;51.978;5.924;2022-09-12T12:00:28;29.90;42.20
45537;DHT22;31262;51.978;5.924;2022-09-12T12:03:08;29.90;42.70
45537;DHT22;31262;51.978;5.924;2022-09-12T12:05:50;29.80;43.10
45537;DHT22;31262;51.978;5.924;2022-09-12T12:08:20;29.90;43.50
45537;DHT22;31262;51.978;5.924;2022-09-12T12:10:58;30.10;42.80
45537;DHT22;31262;51.978;5.924;2022-09-12T12:13:30;30.20;42.80
45537;DHT22;31262;51.978;5.924;2022-09-12T12:16:01;30.00;42.50
45537;DHT22;31262;51.978;5.924;2022-09-12T12:18:30;30.00;43.00
45537;DHT22;31262;51.978;5.924;2022-09-12T12:21:19;30.10;43.20
45537;DHT22;31262;51.978;5.924;2022-09-12T12:29:05;30.40;41.80
45537;DHT22;31262;51.978;5.924;2022-09-12T12:34:31;30.20;41.50
45537;DHT22;31262;51.978;5.924;2022-09-12T12:36:59;30.20;41.70
45537;DHT22;31262;51.978;5.924;2022-09-12T12:47:30;30.00;41.80
45537;DHT22;31262;51.978;5.924;2022-09-12T12:53:13;30.20;41.00
45537;DHT22;31262;51.978;5.924;2022-09-12T12:58:30;30.20;41.60
45537;DHT22;31262;51.978;5.924;2022-09-12T13:01:16;30.30;41.60
45537;DHT22;31262;51.978;5.924;2022-09-12T13:04:03;30.30;41.20
45537;DHT22;31262;51.978;5.924;2022-09-12T13:06:35;30.20;40.60
45537;DHT22;31262;51.978;5.924;2022-09-12T13:12:27;30.10;41.50
45537;DHT22;31262;51.978;5.924;2022-09-12T13:17:29;30.20;41.40
45537;DHT22;31262;51.978;5.924;2022-09-12T13:22:47;30.20;40.60
45537;DHT22;31262;51.978;5.924;2022-09-12T13:25:30;30.30;40.80
45537;DHT22;31262;51.978;5.924;2022-09-12T13:30:39;30.30;41.40
45537;DHT22;31262;51.978;5.924;2022-09-12T13:33:32;30.30;41.10
45537;DHT22;31262;51.978;5.924;2022-09-12T13:42:06;29.80;41.20
45537;DHT22;31262;51.978;5.924;2022-09-12T13:44:50;29.70;41.50
45537;DHT22;31262;51.978;5.924;2022-09-12T13:47:55;29.70;42.30
45537;DHT22;31262;51.978;5.924;2022-09-12T13:50:22;29.70;42.40
45537;DHT22;31262;51.978;5.924;2022-09-12T13:52:51;29.60;41.40
45537;DHT22;31262;51.978;5.924;2022-09-12T13:55:34;29.60;40.90
45537;DHT22;31262;51.978;5.924;2022-09-12T13:58:15;29.60;40.70
45537;DHT22;31262;51.978;5.924;2022-09-12T14:00:41;29.40;41.10
45537;DHT22;31262;51.978;5.924;2022-09-12T14:03:29;29.30;41.50
45537;DHT22;31262;51.978;5.924;2022-09-12T14:06:13;29.30;41.60
45537;DHT22;31262;51.978;5.924;2022-09-12T14:08:42;29.10;41.40
45537;DHT22;31262;51.978;5.924;2022-09-12T14:11:10;29.10;42.00
45537;DHT22;31262;51.978;5.924;2022-09-12T14:13:36;29.10;42.10
45537;DHT22;31262;51.978;5.924;2022-09-12T14:16:04;29.00;42.60
45537;DHT22;31262;51.978;5.924;2022-09-12T14:18:36;29.00;42.40
45537;DHT22;31262;51.978;5.924;2022-09-12T14:21:09;28.90;42.30
45537;DHT22;31262;51.978;5.924;2022-09-12T14:23:41;28.80;42.40
45537;DHT22;31262;51.978;5.924;2022-09-12T14:26:12;28.60;42.40
45537;DHT22;31262;51.978;5.924;2022-09-12T14:28:40;28.50;42.80
45537;DHT22;31262;51.978;5.924;2022-09-12T14:31:27;28.40;43.10
45537;DHT22;31262;51.978;5.924;2022-09-12T14:34:10;28.40;42.90
45537;DHT22;31262;51.978;5.924;2022-09-12T14:39:06;28.20;43.30
45537;DHT22;31262;51.978;5.924;2022-09-12T14:41:39;27.90;43.50
45537;DHT22;31262;51.978;5.924;2022-09-12T14:44:24;28.00;43.60
45537;DHT22;31262;51.978;5.924;2022-09-12T14:46:51;27.90;44.30
45537;DHT22;31262;51.978;5.924;2022-09-12T14:51:53;27.80;44.50
45537;DHT22;31262;51.978;5.924;2022-09-12T14:56:54;27.80;44.30
45537;DHT22;31262;51.978;5.924;2022-09-12T15:04:46;27.80;44.60
45537;DHT22;31262;51.978;5.924;2022-09-12T15:10:00;27.60;44.50
45537;DHT22;31262;51.978;5.924;2022-09-12T15:12:27;27.50;44.70
45537;DHT22;31262;51.978;5.924;2022-09-12T15:15:03;27.50;44.60
45537;DHT22;31262;51.978;5.924;2022-09-12T15:17:31;27.50;43.90
45537;DHT22;31262;51.978;5.924;2022-09-12T15:19:56;27.40;44.00
45537;DHT22;31262;51.978;5.924;2022-09-12T15:22:23;27.30;44.20
45537;DHT22;31262;51.978;5.924;2022-09-12T15:24:50;27.20;44.50
45537;DHT22;31262;51.978;5.924;2022-09-12T15:27:16;27.20;44.80
45537;DHT22;31262;51.978;5.924;2022-09-12T15:29:42;27.20;45.00
45537;DHT22;31262;51.978;5.924;2022-09-12T15:32:12;27.30;45.20
45537;DHT22;31262;51.978;5.924;2022-09-12T15:34:39;27.30;45.50
45537;DHT22;31262;51.978;5.924;2022-09-12T15:37:11;27.30;45.40
45537;DHT22;31262;51.978;5.924;2022-09-12T15:39:38;27.30;45.10
45537;DHT22;31262;51.978;5.924;2022-09-12T15:42:03;27.20;45.30
45537;DHT22;31262;51.978;5.924;2022-09-12T15:44:30;27.10;45.90
45537;DHT22;31262;51.978;5.924;2022-09-12T15:46:55;27.10;45.80
45537;DHT22;31262;51.978;5.924;2022-09-12T15:49:29;27.10;46.00
45537;DHT22;31262;51.978;5.924;2022-09-12T15:51:54;27.10;46.00
45537;DHT22;31262;51.978;5.924;2022-09-12T15:54:20;27.10;46.30
45537;DHT22;31262;51.978;5.924;2022-09-12T15:56:46;27.10;46.90
45537;DHT22;31262;51.978;5.924;2022-09-12T15:59:12;27.10;47.00
45537;DHT22;31262;51.978;5.924;2022-09-12T16:01:38;27.00;47.10
45537;DHT22;31262;51.978;5.924;2022-09-12T16:06:51;27.10;46.10
45537;DHT22;31262;51.978;5.924;2022-09-12T16:09:17;27.00;46.00
45537;DHT22;31262;51.978;5.924;2022-09-12T16:11:44;27.00;46.40
45537;DHT22;31262;51.978;5.924;2022-09-12T16:14:13;26.90;46.80
45537;DHT22;31262;51.978;5.924;2022-09-12T16:16:40;27.00;46.20
45537;DHT22;31262;51.978;5.924;2022-09-12T16:19:05;26.90;46.10
45537;DHT22;31262;51.978;5.924;2022-09-12T16:21:31;26.90;46.00
45537;DHT22;31262;51.978;5.924;2022-09-12T16:23:57;26.90;46.80
45537;DHT22;31262;51.978;5.924;2022-09-12T16:26:23;26.90;46.60
45537;DHT22;31262;51.978;5.924;2022-09-12T16:28:56;26.90;46.80
45537;DHT22;31262;51.978;5.924;2022-09-12T16:31:22;26.90;46.90
45537;DHT22;31262;51.978;5.924;2022-09-12T16:33:48;26.80;47.30
45537;DHT22;31262;51.978;5.924;2022-09-12T16:36:18;26.70;47.80
45537;DHT22;31262;51.978;5.924;2022-09-12T16:38:50;26.80;48.20
45537;DHT22;31262;51.978;5.924;2022-09-12T16:41:17;26.70;47.40
45537;DHT22;31262;51.978;5.924;2022-09-12T16:43:44;26.70;48.00
45537;DHT22;31262;51.978;5.924;2022-09-12T16:48:44;26.60;47.50
45537;DHT22;31262;51.978;5.924;2022-09-12T16:51:12;26.60;48.90
45537;DHT22;31262;51.978;5.924;2022-09-12T16:53:39;26.60;48.50
45537;DHT22;31262;51.978;5.924;2022-09-12T16:56:05;26.60;48.40
45537;DHT22;31262;51.978;5.924;2022-09-12T16:58:33;26.50;48.60
45537;DHT22;31262;51.978;5.924;2022-09-12T17:01:10;26.50;48.50
45537;DHT22;31262;51.978;5.924;2022-09-12T17:03:36;26.50;49.00
45537;DHT22;31262;51.978;5.924;2022-09-12T17:06:05;26.40;49.10
45537;DHT22;31262;51.978;5.924;2022-09-12T17:08:33;26.40;49.40
45537;DHT22;31262;51.978;5.924;2022-09-12T17:11:04;26.30;48.60
45537;DHT22;31262;51.978;5.924;2022-09-12T17:13:30;26.30;48.30
45537;DHT22;31262;51.978;5.924;2022-09-12T17:15:56;26.20;49.20
45537;DHT22;31262;51.978;5.924;2022-09-12T17:18:22;26.20;49.00
45537;DHT22;31262;51.978;5.924;2022-09-12T17:20:49;26.10;49.30
45537;DHT22;31262;51.978;5.924;2022-09-12T17:23:15;26.10;49.80
45537;DHT22;31262;51.978;5.924;2022-09-12T17:25:48;26.10;49.90
45537;DHT22;31262;51.978;5.924;2022-09-12T17:28:14;26.10;49.90
45537;DHT22;31262;51.978;5.924;2022-09-12T17:30:40;26.00;50.40
45537;DHT22;31262;51.978;5.924;2022-09-12T17:33:06;25.90;50.70
45537;DHT22;31262;51.978;5.924;2022-09-12T17:35:35;25.90;50.50
45537;DHT22;31262;51.978;5.924;2022-09-12T17:38:02;25.90;50.90
45537;DHT22;31262;51.978;5.924;2022-09-12T17:40:28;25.90;51.20
45537;DHT22;31262;51.978;5.924;2022-09-12T17:42:53;25.90;51.50
45537;DHT22;31262;51.978;5.924;2022-09-12T17:45:20;25.80;51.70
45537;DHT22;31262;51.978;5.924;2022-09-12T17:47:46;25.80;51.80
45537;DHT22;31262;51.978;5.924;2022-09-12T17:50:12;25.80;52.00
45537;DHT22;31262;51.978;5.924;2022-09-12T17:52:37;25.70;52.20
45537;DHT22;31262;51.978;5.924;2022-09-12T17:55:03;25.70;52.20
45537;DHT22;31262;51.978;5.924;2022-09-12T17:57:29;25.70;52.30
45537;DHT22;31262;51.978;5.924;2022-09-12T17:59:54;25.70;52.50
45537;DHT22;31262;51.978;5.924;2022-09-12T18:02:20;25.60;52.60
45537;DHT22;31262;51.978;5.924;2022-09-12T18:04:46;25.60;52.80
45537;DHT22;31262;51.978;5.924;2022-09-12T18:07:13;25.60;52.80
45537;DHT22;31262;51.978;5.924;2022-09-12T18:09:39;25.60;53.00
45537;DHT22;31262;51.978;5.924;2022-09-12T18:12:06;25.50;53.10
45537;DHT22;31262;51.978;5.924;2022-09-12T18:14:32;25.50;53.30
45537;DHT22;31262;51.978;5.924;2022-09-12T18:16:58;25.50;53.40
45537;DHT22;31262;51.978;5.924;2022-09-12T18:19:25;25.40;53.50
45537;DHT22;31262;51.978;5.924;2022-09-12T18:21:52;25.40;53.80
45537;DHT22;31262;51.978;5.924;2022-09-12T18:24:19;25.40;54.10
45537;DHT22;31262;51.978;5.924;2022-09-12T18:26:45;25.30;54.40
45537;DHT22;31262;51.978;5.924;2022-09-12T18:29:13;25.20;54.70
45537;DHT22;31262;51.978;5.924;2022-09-12T18:31:42;25.10;54.90
45537;DHT22;31262;51.978;5.924;2022-09-12T18:34:10;25.00;55.30